Time Latitude Longitude Accuracy (66% radius in meters) Altitude (meters) Speed (km/hour) Bearing (degrees) Battery (%) GPS flag
09:22:01 55.944017 38.068162 1.5 181.10000610352 0 0 72 1 delete
09:21:49 55.944017 38.068162 1.5 181.10000610352 0 0 72 1 delete
09:21:40 55.944017 38.068162 2 181.10000610352 0 0 72 1 delete
09:21:28 55.944016 38.068162 2 181.10000610352 0 126.10656738281 72 1 delete
09:21:19 55.944029 38.068126 2.5 183.60000610352 0 0 72 1 delete
09:21:07 55.944029 38.068126 2 183.60000610352 0 0 72 1 delete
09:20:58 55.944029 38.068126 1.5 183.60000610352 0 0 72 1 delete
09:20:46 55.944029 38.068126 2 183.60000610352 0 0 72 1 delete
09:20:37 55.944029 38.068126 1.5 183.60000610352 0 0 72 1 delete
09:20:28 55.944028 38.068128 1.5 183.30000305176 0.18999999761581 112.24182128906 72 1 delete
09:20:22 55.944021 38.068025 1.5 184.30000305176 1.1999999284744 72.745971679688 72 1 delete
09:20:16 55.944014 38.067991 1.5 185.19999694824 0 0 72 1 delete
09:20:07 55.944007 38.067997 2 186.19999694824 0.26999998092651 38.732299804688 72 1 delete
09:20:04 55.943994 38.067953 2 186.10000610352 1.9199999570847 65.165405273438 72 1 delete
09:19:58 55.943962 38.067838 1.5 186.10000610352 1.2200000286102 65.319213867188 72 1 delete
09:19:55 55.943945 38.067757 1.5 185.5 2.0699999332428 70.482788085938 72 1 delete
09:19:46 55.943925 38.067644 1.5 185.60000610352 0 0 72 1 delete
09:19:34 55.943925 38.067644 1.5 185.60000610352 0 0 72 1 delete
09:19:25 55.943925 38.067644 1.5 185.60000610352 0 266.62719726562 72 1 delete
09:19:13 55.943911 38.067630 2 186 0.9099999666214 89.862670898438 72 1 delete
09:19:10 55.943909 38.067610 2 186.5 1.0599999427795 38.139038085938 72 1 delete
09:19:07 55.943824 38.067478 2 187.69999694824 4.6799998283386 42.099609375 72 1 delete
09:19:04 55.943695 38.067375 2 187.89999389648 4.6999998092651 359.9560546875 72 1 delete
09:19:01 55.943555 38.067320 2 188 4.5899996757507 46.071166992188 72 1 delete
09:18:58 55.943472 38.067146 2 188.19999694824 4.0599999427795 57.06298828125 72 1 delete
09:18:55 55.943431 38.067007 2 187.5 1.2300000190735 66.934204101562 72 1 delete
09:18:52 55.943413 38.066943 2 186.30000305176 2.9900000095367 70.043334960938 72 1 delete
09:18:49 55.943392 38.066914 1.5 185.5 4.1700000762939 346.75598144531 72 1 delete
09:18:46 55.943234 38.066933 1.5 186.19999694824 4.3699998855591 337.77465820312 72 1 delete
09:18:43 55.943091 38.066991 1.5 186.39999389648 4.4299998283386 345.43212890625 72 1 delete
09:18:40 55.942969 38.067057 1.5 186.30000305176 4.7300000190735 339.32373046875 72 1 delete
09:18:37 55.942828 38.067173 1.5 187.5 5.4800000190735 336.91223144531 72 1 delete
09:18:34 55.942668 38.067267 2 188.30000305176 4.0699996948242 357.50610351562 72 1 delete
09:18:31 55.942527 38.067246 2.5 189.30000305176 3.75 1.8017578125 72 1 delete
09:18:28 55.942431 38.067240 2.5 189.19999694824 2.6299998760223 346.5087890625 72 1 delete
09:18:25 55.942407 38.067128 2 189.10000610352 3.9499998092651 115.72998046875 72 1 delete
09:18:22 55.942465 38.066923 2 188.60000610352 4.2999997138977 130.40771484375 72 1 delete
09:18:19 55.942488 38.066746 2 187.80000305176 3.8899998664856 67.044067382812 72 1 delete
09:18:16 55.942418 38.066600 2 187.19999694824 3.0299999713898 38.353271484375 72 1 delete
09:18:10 55.942360 38.066513 2 188 1.2599999904633 35.722045898438 72 1 delete
09:18:07 55.942293 38.066486 1.5 187.60000610352 4.4499998092651 356.90734863281 72 1 delete
09:18:04 55.942146 38.066528 2 189.60000610352 4.0999999046326 10.70068359375 72 1 delete
09:18:01 55.941990 38.066457 2 193.80000305176 4.1999998092651 7.481689453125 72 1 delete
09:17:58 55.941871 38.066376 2.5 194.89999389648 3.3399999141693 24.603881835938 72 1 delete
09:17:55 55.941781 38.066276 2 195 3.8899998664856 18.429565429688 72 1 delete
09:17:52 55.941717 38.066088 2 195.80000305176 5.0599999427795 93.09814453125 72 1 delete
09:17:49 55.941744 38.065841 2 195.10000610352 5.8099999427795 110.90148925781 72 1 delete
09:17:46 55.941792 38.065560 2 193.69999694824 6.2599997520447 117.40539550781 72 1 delete
09:17:43 55.941880 38.065302 2 193.10000610352 6.3499999046326 139.80651855469 72 1 delete
09:17:40 55.941990 38.065105 2 192.10000610352 6.0099997520447 136.97204589844 72 1 delete